Time;durP1;ratioP1;P1;durP2;ratioP2;P2;SDS_P1;SDS_P2;PMS_P1;PMS_P2;Temp;Humidity;BMP_temperature;BMP_pressure;BME280_temperature;BME280_humidity;BME280_pressure;Samples;Min_cycle;Max_cycle;Signal;HPM_P1;HPM_P2
2022/08/04 00:00:25;;;;;;;;;;;;;;;29.90;90.98;98766.75;5068021;28;20023;-40
2022/08/04 00:02:50;;;;;;;;;;;;;;;30.01;90.74;98768.13;5063968;28;19929;-39
2022/08/04 00:05:34;;;;;;;;;;;;;;;30.10;90.00;98760.91;5064475;28;20019;-39
2022/08/04 00:08:02;;;;;;;;;;;;;;;30.24;89.37;98762.75;5066695;28;19920;-40
2022/08/04 00:10:27;;;;;;;;;;;;;;;31.12;85.17;98750.50;5062300;28;19936;-40
2022/08/04 00:12:54;;;;;;;;;;;;;;;30.86;85.52;98759.00;5070663;28;19916;-39
2022/08/04 00:15:20;;;;;;;;;;;;;;;30.37;86.71;98763.00;5068145;28;19966;-39
2022/08/04 00:17:52;;;;;;;;;;;;;;;30.36;88.07;98750.72;5064139;28;20027;-40
2022/08/04 00:20:17;;;;;;;;;;;;;;;30.50;87.08;98756.25;5059525;28;19920;-39
2022/08/04 00:22:43;;;;;;;;;;;;;;;30.92;86.35;98762.75;5068216;28;19924;-39
2022/08/04 00:25:08;;;;;;;;;;;;;;;31.36;82.06;98752.00;5067778;28;19991;-40
2022/08/04 00:27:34;;;;;;;;;;;;;;;30.60;85.23;98756.78;5063947;28;20398;-39
2022/08/04 00:29:59;;;;;;;;;;;;;;;30.23;87.80;98751.31;5065854;28;19919;-40
2022/08/04 00:32:25;;;;;;;;;;;;;;;30.84;85.52;98743.22;5061647;28;20529;-41
2022/08/04 00:34:50;;;;;;;;;;;;;;;30.44;85.88;98747.16;5063651;28;19926;-39
2022/08/04 00:37:15;;;;;;;;;;;;;;;30.40;85.02;98745.88;5065819;28;19920;-40
2022/08/04 00:39:41;;;;;;;;;;;;;;;29.51;90.30;98751.72;5061733;28;20003;-40
2022/08/04 00:42:35;;;;;;;;;;;;;;;29.34;91.68;98744.91;5060893;28;19916;-40
2022/08/04 00:45:10;;;;;;;;;;;;;;;29.12;92.36;98743.88;5059966;28;19959;-40
2022/08/04 00:47:43;;;;;;;;;;;;;;;30.07;89.91;98748.00;5071529;28;19959;-39
2022/08/04 00:50:09;;;;;;;;;;;;;;;30.29;88.61;98746.31;5058398;28;19916;-40
2022/08/04 00:52:34;;;;;;;;;;;;;;;30.74;86.33;98739.97;5070434;28;20441;-40
2022/08/04 00:55:00;;;;;;;;;;;;;;;31.54;82.42;98735.59;5065699;28;20034;-40
2022/08/04 00:57:40;;;;;;;;;;;;;;;31.59;81.56;98737.69;5060187;28;19920;-39
2022/08/04 01:00:11;;;;;;;;;;;;;;;31.59;81.76;98738.53;5064315;28;19927;-39
2022/08/04 01:03:00;;;;;;;;;;;;;;;31.36;82.20;98735.19;5067601;28;19924;-39
2022/08/04 01:05:28;;;;;;;;;;;;;;;31.15;82.67;98734.16;5052053;28;19920;-40
2022/08/04 01:08:02;;;;;;;;;;;;;;;31.15;81.00;98728.84;5063003;28;20050;-40
2022/08/04 01:10:40;;;;;;;;;;;;;;;28.74;86.92;98741.88;5063022;28;20297;-39
2022/08/04 01:13:26;;;;;;;;;;;;;;;29.12;89.14;98731.44;5065242;28;19924;-40
2022/08/04 01:15:51;;;;;;;;;;;;;;;28.90;90.55;98729.56;5034483;28;20343;-39
2022/08/04 01:18:30;;;;;;;;;;;;;;;28.70;91.23;98729.97;5060093;28;19926;-39
2022/08/04 01:20:58;;;;;;;;;;;;;;;28.18;94.17;98733.06;5067082;28;19927;-40
2022/08/04 01:23:41;;;;;;;;;;;;;;;28.81;93.76;98722.59;5065944;28;20019;-39
2022/08/04 01:26:31;;;;;;;;;;;;;;;28.88;92.72;98726.25;5067315;28;19996;-39
2022/08/04 01:29:02;;;;;;;;;;;;;;;28.54;93.44;98728.19;5066123;28;19927;-39
2022/08/04 01:31:36;;;;;;;;;;;;;;;28.69;93.53;98725.66;5061089;28;20364;-40
2022/08/04 01:34:02;;;;;;;;;;;;;;;29.57;90.77;98718.38;5065775;28;20049;-40
2022/08/04 01:36:28;;;;;;;;;;;;;;;30.11;88.47;98714.78;5065945;28;19927;-40
2022/08/04 01:38:53;;;;;;;;;;;;;;;30.73;85.39;98714.41;5064692;28;19940;-40
2022/08/04 01:41:18;;;;;;;;;;;;;;;30.97;84.17;98704.50;5059670;28;19924;-40
2022/08/04 01:43:44;;;;;;;;;;;;;;;30.81;85.15;98713.47;5063033;28;19963;-40
2022/08/04 01:46:11;;;;;;;;;;;;;;;30.51;86.49;98710.84;5066138;28;19927;-39
2022/08/04 01:48:37;;;;;;;;;;;;;;;30.56;85.43;98707.66;5058143;28;19942;-39
2022/08/04 01:51:04;;;;;;;;;;;;;;;30.76;84.41;98703.41;5062827;28;19927;-39
2022/08/04 01:53:30;;;;;;;;;;;;;;;30.61;83.71;98707.94;5068290;28;19919;-40
2022/08/04 01:55:55;;;;;;;;;;;;;;;30.75;83.85;98703.59;5067236;28;19920;-39
2022/08/04 01:58:20;;;;;;;;;;;;;;;30.85;83.54;98694.34;5058416;28;19916;-40
2022/08/04 02:01:09;;;;;;;;;;;;;;;30.70;82.54;98695.34;5060805;28;19917;-40
2022/08/04 02:03:35;;;;;;;;;;;;;;;30.64;82.49;98694.28;5060899;28;20301;-40
2022/08/04 02:06:06;;;;;;;;;;;;;;;30.75;81.93;98690.31;5060005;28;19942;-39
2022/08/04 02:08:35;;;;;;;;;;;;;;;30.30;82.65;98687.69;5069699;28;20411;-39
2022/08/04 02:11:08;;;;;;;;;;;;;;;29.68;86.17;98687.97;5056576;28;20715;-39
2022/08/04 02:13:48;;;;;;;;;;;;;;;29.89;85.04;98685.44;5058907;28;20388;-39
2022/08/04 02:16:14;;;;;;;;;;;;;;;30.23;85.75;98676.13;5059008;28;20006;-39
2022/08/04 02:18:59;;;;;;;;;;;;;;;30.25;84.25;98666.16;5066227;28;20470;-39
2022/08/04 02:21:25;;;;;;;;;;;;;;;30.57;83.90;98666.78;5037130;28;20526;-39
2022/08/04 02:23:52;;;;;;;;;;;;;;;30.56;83.74;98665.13;5052630;28;19956;-40
2022/08/04 02:26:21;;;;;;;;;;;;;;;30.41;83.21;98663.31;5062326;28;19951;-40
2022/08/04 02:28:47;;;;;;;;;;;;;;;30.47;82.28;98663.59;5063086;28;19920;-39
2022/08/04 02:31:14;;;;;;;;;;;;;;;29.72;83.39;98657.38;5063706;28;20396;-39
2022/08/04 02:33:41;;;;;;;;;;;;;;;29.53;84.70;98654.22;5063293;28;19916;-40
2022/08/04 02:36:08;;;;;;;;;;;;;;;28.85;86.39;98655.84;5060895;28;19920;-39
2022/08/04 02:38:46;;;;;;;;;;;;;;;28.88;87.84;98654.69;5060347;28;19936;-39
2022/08/04 02:41:11;;;;;;;;;;;;;;;29.02;84.99;98645.97;5057731;28;19928;-40
2022/08/04 02:43:36;;;;;;;;;;;;;;;29.28;86.45;98639.50;5055890;28;19920;-40
2022/08/04 02:46:01;;;;;;;;;;;;;;;29.11;86.26;98642.28;5059701;28;19921;-40
2022/08/04 02:48:27;;;;;;;;;;;;;;;29.62;84.28;98639.03;5059397;28;20364;-40
2022/08/04 02:50:52;;;;;;;;;;;;;;;29.80;83.68;98628.13;5055240;28;20007;-40
2022/08/04 02:53:17;;;;;;;;;;;;;;;30.10;82.58;98626.28;5057125;28;19982;-39
2022/08/04 02:55:43;;;;;;;;;;;;;;;30.40;81.48;98619.16;5058001;28;19943;-40
2022/08/04 02:58:08;;;;;;;;;;;;;;;30.59;80.82;98622.25;5059872;28;19997;-40
2022/08/04 03:00:33;;;;;;;;;;;;;;;30.43;81.58;98618.78;5070783;28;19927;-40
2022/08/04 03:03:08;;;;;;;;;;;;;;;30.37;81.05;98614.22;5063381;28;19924;-40
2022/08/04 03:05:43;;;;;;;;;;;;;;;30.06;82.92;98616.22;5054091;28;19977;-39
2022/08/04 03:08:21;;;;;;;;;;;;;;;29.51;85.95;98616.41;5055461;28;20320;-40
2022/08/04 03:10:46;;;;;;;;;;;;;;;29.60;85.90;98614.50;5052636;28;19920;-40
2022/08/04 03:13:14;;;;;;;;;;;;;;;29.23;88.74;98620.66;5064300;28;19920;-39
2022/08/04 03:15:58;;;;;;;;;;;;;;;29.12;88.58;98614.75;5063112;28;19916;-39
2022/08/04 03:18:29;;;;;;;;;;;;;;;28.51;90.83;98621.72;5060947;28;19916;-39
2022/08/04 03:21:03;;;;;;;;;;;;;;;29.04;90.06;98617.44;5059285;28;19921;-39
2022/08/04 03:23:47;;;;;;;;;;;;;;;28.89;90.17;98619.22;5059645;28;20418;-40
2022/08/04 03:26:31;;;;;;;;;;;;;;;29.28;89.99;98618.28;5067219;28;19912;-39
2022/08/04 03:29:15;;;;;;;;;;;;;;;28.98;90.84;98618.16;5066077;28;19920;-39
2022/08/04 03:31:47;;;;;;;;;;;;;;;28.27;95.53;98615.53;5065180;28;19981;-40
2022/08/04 03:34:12;;;;;;;;;;;;;;;28.48;95.27;98617.59;5063111;28;19927;-39
2022/08/04 03:36:46;;;;;;;;;;;;;;;28.84;92.59;98609.13;5058932;28;19920;-39
2022/08/04 03:39:11;;;;;;;;;;;;;;;29.27;89.96;98611.34;5068019;28;19922;-39
2022/08/04 03:41:42;;;;;;;;;;;;;;;29.10;89.77;98606.19;5063232;28;19924;-39
2022/08/04 03:44:16;;;;;;;;;;;;;;;29.05;89.07;98595.22;5059277;28;19926;-40
2022/08/04 03:46:43;;;;;;;;;;;;;;;29.45;88.52;98590.63;5064330;28;20364;-39
2022/08/04 03:49:27;;;;;;;;;;;;;;;29.32;88.82;98590.41;5056463;28;19920;-39
2022/08/04 03:55:00;;;;;;;;;;;;;;;28.80;91.77;98593.75;5066376;28;19947;-40
2022/08/04 03:57:28;;;;;;;;;;;;;;;28.98;90.82;98591.63;5067224;28;20037;-40
2022/08/04 03:59:53;;;;;;;;;;;;;;;28.89;90.87;98592.69;5071657;28;20289;-40
2022/08/04 04:02:27;;;;;;;;;;;;;;;29.21;89.12;98585.53;5064650;28;19920;-40
2022/08/04 04:05:04;;;;;;;;;;;;;;;28.97;87.89;98590.81;5062201;28;19916;-39
2022/08/04 04:07:32;;;;;;;;;;;;;;;27.94;88.10;98588.38;5056604;28;20774;-40
2022/08/04 04:10:18;;;;;;;;;;;;;;;28.26;88.99;98581.25;5061255;28;19939;-39
2022/08/04 04:12:55;;;;;;;;;;;;;;;28.14;89.89;98584.31;5057354;28;19916;-39
2022/08/04 04:15:29;;;;;;;;;;;;;;;27.33;92.74;98588.75;5065769;28;19924;-40
2022/08/04 04:18:27;;;;;;;;;;;;;;;28.28;88.37;98580.13;5059264;28;19928;-40
2022/08/04 04:20:53;;;;;;;;;;;;;;;28.63;85.99;98582.44;5032658;28;19924;-39
2022/08/04 04:23:25;;;;;;;;;;;;;;;28.02;88.63;98584.84;5059749;28;20553;-40
2022/08/04 04:25:53;;;;;;;;;;;;;;;28.30;87.80;98588.69;5056867;28;20321;-40
2022/08/04 04:28:30;;;;;;;;;;;;;;;28.32;87.11;98585.88;5060042;28;19927;-39
2022/08/04 04:31:02;;;;;;;;;;;;;;;28.36;86.57;98585.34;5062454;28;19921;-39
2022/08/04 04:33:31;;;;;;;;;;;;;;;28.94;83.18;98585.03;5059139;28;19966;-39
2022/08/04 04:36:01;;;;;;;;;;;;;;;27.82;85.68;98585.19;5060305;28;19921;-40
2022/08/04 04:38:45;;;;;;;;;;;;;;;28.19;86.66;98581.16;5066855;28;20710;-39
2022/08/04 04:41:29;;;;;;;;;;;;;;;28.42;84.20;98581.22;5065275;28;19958;-39
2022/08/04 04:44:13;;;;;;;;;;;;;;;28.52;83.27;98573.88;5062445;28;19921;-39
2022/08/04 04:46:44;;;;;;;;;;;;;;;28.78;81.12;98570.91;5064887;28;19924;-40
2022/08/04 04:49:21;;;;;;;;;;;;;;;28.78;81.72;98570.91;5057239;28;19927;-40
2022/08/04 04:52:04;;;;;;;;;;;;;;;28.45;82.58;98577.38;5069443;28;19931;-40
2022/08/04 04:54:29;;;;;;;;;;;;;;;28.38;82.53;98573.78;5057775;28;19986;-39
2022/08/04 04:56:54;;;;;;;;;;;;;;;28.93;81.28;98567.50;5062948;28;20016;-40
2022/08/04 04:59:21;;;;;;;;;;;;;;;28.81;80.32;98568.88;5059241;28;19926;-40
2022/08/04 05:02:01;;;;;;;;;;;;;;;28.89;80.50;98574.97;5060875;28;20404;-39
2022/08/04 05:04:29;;;;;;;;;;;;;;;28.85;79.68;98576.34;5060909;28;19920;-40
2022/08/04 05:07:13;;;;;;;;;;;;;;;29.03;79.02;98570.72;5059578;28;20589;-40
2022/08/04 05:09:41;;;;;;;;;;;;;;;29.59;75.28;98568.59;5062287;28;19924;-40
2022/08/04 05:12:35;;;;;;;;;;;;;;;29.47;75.90;98575.34;5062672;28;19916;-40
2022/08/04 05:15:00;;;;;;;;;;;;;;;28.97;75.26;98579.41;5017042;28;19924;-40
2022/08/04 05:17:32;;;;;;;;;;;;;;;29.44;74.48;98575.69;5067828;28;20725;-39
2022/08/04 05:19:59;;;;;;;;;;;;;;;30.02;72.53;98567.97;5044420;28;19916;-40
2022/08/04 05:22:27;;;;;;;;;;;;;;;30.30;71.42;98565.50;5062374;28;19924;-40
2022/08/04 05:25:00;;;;;;;;;;;;;;;29.72;74.51;98569.78;5060710;28;20495;-40
2022/08/04 05:27:27;;;;;;;;;;;;;;;30.02;72.86;98567.97;5067846;28;19971;-40
2022/08/04 05:30:01;;;;;;;;;;;;;;;29.52;74.20;98570.31;5061556;28;19916;-40
2022/08/04 05:32:27;;;;;;;;;;;;;;;29.52;73.55;98572.97;5057201;28;20284;-39
2022/08/04 05:34:54;;;;;;;;;;;;;;;30.05;71.09;98566.78;5060481;28;19916;-40
2022/08/04 05:37:20;;;;;;;;;;;;;;;30.43;69.58;98570.16;5057331;28;19934;-40
2022/08/04 05:39:46;;;;;;;;;;;;;;;30.77;68.27;98566.81;5061398;28;20070;-40
2022/08/04 05:42:12;;;;;;;;;;;;;;;30.50;68.76;98563.06;5059075;28;19926;-40
2022/08/04 05:44:37;;;;;;;;;;;;;;;31.17;66.76;98559.22;5057740;28;19916;-40
2022/08/04 05:47:03;;;;;;;;;;;;;;;30.80;68.42;98565.63;5061010;28;19916;-39
2022/08/04 05:49:28;;;;;;;;;;;;;;;30.93;67.17;98563.13;5051874;28;19916;-40
2022/08/04 05:51:54;;;;;;;;;;;;;;;31.08;67.85;98568.34;5064605;28;19957;-40
2022/08/04 05:54:19;;;;;;;;;;;;;;;31.13;66.60;98565.94;5058059;28;19916;-40
2022/08/04 05:56:45;;;;;;;;;;;;;;;31.38;64.84;98569.00;5063111;28;20011;-40
2022/08/04 05:59:10;;;;;;;;;;;;;;;32.22;62.33;98569.94;5052465;28;19964;-40
2022/08/04 06:01:35;;;;;;;;;;;;;;;32.14;60.67;98570.09;5053139;28;19920;-40
2022/08/04 06:04:00;;;;;;;;;;;;;;;31.87;63.26;98567.31;5036716;28;19955;-41
2022/08/04 06:06:26;;;;;;;;;;;;;;;31.54;63.02;98567.09;5054856;28;19916;-40
2022/08/04 06:08:51;;;;;;;;;;;;;;;31.53;63.44;98571.59;5051380;28;20486;-40
2022/08/04 06:11:16;;;;;;;;;;;;;;;31.68;62.86;98568.81;5056462;28;19923;-40
2022/08/04 06:13:43;;;;;;;;;;;;;;;31.74;62.66;98572.53;5055708;28;20375;-40
2022/08/04 06:16:08;;;;;;;;;;;;;;;31.80;60.77;98572.59;5049836;28;19965;-40
2022/08/04 06:18:34;;;;;;;;;;;;;;;31.58;62.93;98571.00;5051417;28;19964;-40
2022/08/04 06:20:59;;;;;;;;;;;;;;;31.81;60.27;98568.06;5054812;28;19995;-41
2022/08/04 06:23:25;;;;;;;;;;;;;;;30.91;63.67;98573.13;5054558;28;20660;-40
2022/08/04 06:25:52;;;;;;;;;;;;;;;31.77;60.97;98572.16;5054630;28;19916;-40
2022/08/04 06:28:17;;;;;;;;;;;;;;;31.43;60.82;98579.09;5053532;28;19970;-40
2022/08/04 06:30:46;;;;;;;;;;;;;;;32.18;59.62;98571.34;5055759;28;20382;-40
2022/08/04 06:33:32;;;;;;;;;;;;;;;31.46;60.56;98570.72;5052177;28;19924;-40
2022/08/04 06:35:57;;;;;;;;;;;;;;;31.59;61.44;98568.16;5054498;28;19962;-40
2022/08/04 06:38:23;;;;;;;;;;;;;;;31.80;60.27;98571.78;5052929;28;20356;-40
2022/08/04 06:40:48;;;;;;;;;;;;;;;31.98;58.72;98573.94;5053444;28;19916;-40
2022/08/04 06:43:14;;;;;;;;;;;;;;;32.24;57.33;98573.22;5054520;28;19931;-40
2022/08/04 06:45:40;;;;;;;;;;;;;;;32.01;57.76;98578.88;5053226;28;20010;-40
2022/08/04 06:48:05;;;;;;;;;;;;;;;32.19;58.04;98570.34;5059411;28;20270;-40
2022/08/04 06:50:31;;;;;;;;;;;;;;;32.14;58.42;98575.44;5040118;28;19923;-40
2022/08/04 06:52:56;;;;;;;;;;;;;;;32.60;57.05;98572.16;5059651;28;20007;-40
2022/08/04 06:55:23;;;;;;;;;;;;;;;32.78;55.54;98580.41;5061928;28;19923;-40
2022/08/04 06:57:49;;;;;;;;;;;;;;;32.56;54.94;98573.56;5055543;28;19917;-40
2022/08/04 07:00:15;;;;;;;;;;;;;;;32.97;55.22;98569.94;5062163;28;20385;-40
2022/08/04 07:02:41;;;;;;;;;;;;;;;33.59;53.97;98575.94;5059207;28;19943;-40
2022/08/04 07:05:07;;;;;;;;;;;;;;;32.92;54.40;98571.38;5058639;28;19920;-40
2022/08/04 07:07:32;;;;;;;;;;;;;;;33.78;52.09;98574.25;5063294;28;19916;-40
2022/08/04 07:09:58;;;;;;;;;;;;;;;33.60;52.28;98569.53;5064064;28;19954;-40
2022/08/04 07:12:23;;;;;;;;;;;;;;;34.03;51.22;98567.19;5063221;28;19985;-40
2022/08/04 07:14:48;;;;;;;;;;;;;;;33.87;51.44;98568.47;5067133;28;19939;-40
2022/08/04 07:17:17;;;;;;;;;;;;;;;33.92;51.48;98567.84;5062716;28;19927;-40
2022/08/04 07:19:43;;;;;;;;;;;;;;;35.53;47.68;98565.84;5061532;28;19916;-41
2022/08/04 07:22:08;;;;;;;;;;;;;;;34.58;49.92;98562.22;5063969;28;20407;-40
2022/08/04 07:24:34;;;;;;;;;;;;;;;34.67;49.69;98568.16;5065224;28;19966;-40
2022/08/04 07:27:00;;;;;;;;;;;;;;;34.84;49.06;98573.00;5056698;28;19917;-40
2022/08/04 07:29:25;;;;;;;;;;;;;;;35.05;48.39;98571.81;5064675;28;20427;-40
2022/08/04 07:31:51;;;;;;;;;;;;;;;35.31;47.22;98574.31;5058446;28;20034;-40
2022/08/04 07:34:17;;;;;;;;;;;;;;;35.60;45.89;98567.44;5064791;28;19923;-40
2022/08/04 07:36:43;;;;;;;;;;;;;;;35.58;46.98;98568.66;5061220;28;19969;-40
2022/08/04 07:39:08;;;;;;;;;;;;;;;36.48;44.24;98570.78;5060657;28;19916;-41
2022/08/04 07:41:33;;;;;;;;;;;;;;;36.36;44.77;98570.72;5058407;28;20357;-40
2022/08/04 07:43:58;;;;;;;;;;;;;;;37.20;41.95;98569.94;5061986;28;19938;-41
2022/08/04 07:46:24;;;;;;;;;;;;;;;37.25;42.25;98572.75;5067971;28;19924;-40
2022/08/04 07:48:49;;;;;;;;;;;;;;;37.18;42.33;98569.34;5062967;28;19924;-40
2022/08/04 07:51:14;;;;;;;;;;;;;;;37.51;41.05;98576.03;5062008;28;20026;-40
2022/08/04 07:53:40;;;;;;;;;;;;;;;37.41;41.56;98580.09;5059057;28;19916;-40
2022/08/04 07:56:05;;;;;;;;;;;;;;;37.02;43.72;98574.31;5060954;28;19928;-40
2022/08/04 07:58:30;;;;;;;;;;;;;;;37.65;40.56;98574.75;5062889;28;19916;-40
2022/08/04 08:00:56;;;;;;;;;;;;;;;37.54;40.98;98572.84;5053780;28;19916;-40
2022/08/04 08:03:21;;;;;;;;;;;;;;;37.59;40.21;98570.31;5062406;28;19959;-40
2022/08/04 08:05:46;;;;;;;;;;;;;;;37.64;40.78;98575.81;5055970;28;20357;-40
2022/08/04 08:08:11;;;;;;;;;;;;;;;37.99;40.12;98566.84;5060786;28;20580;-40
2022/08/04 08:10:37;;;;;;;;;;;;;;;37.41;38.97;98573.94;5056565;28;19939;-40
2022/08/04 08:13:02;;;;;;;;;;;;;;;37.57;40.84;98572.44;5060266;28;19924;-40
2022/08/04 08:15:28;;;;;;;;;;;;;;;38.70;37.74;98568.25;5057618;28;19917;-40
2022/08/04 08:17:53;;;;;;;;;;;;;;;38.38;37.65;98564.41;5061486;28;19978;-40
2022/08/04 08:20:18;;;;;;;;;;;;;;;39.24;36.84;98561.63;5058346;28;19928;-41
2022/08/04 08:22:43;;;;;;;;;;;;;;;38.24;37.39;98578.16;5065537;28;19924;-40
2022/08/04 08:25:10;;;;;;;;;;;;;;;39.36;38.02;98565.03;5062628;28;19916;-40
2022/08/04 08:27:36;;;;;;;;;;;;;;;38.10;38.09;98576.78;5059529;28;19920;-40
2022/08/04 08:30:01;;;;;;;;;;;;;;;38.70;38.21;98570.13;5061708;28;19923;-40
2022/08/04 08:32:26;;;;;;;;;;;;;;;38.91;37.84;98573.97;5062485;28;20253;-40
2022/08/04 08:34:51;;;;;;;;;;;;;;;37.99;39.34;98574.91;5057131;28;20042;-40
2022/08/04 08:37:17;;;;;;;;;;;;;;;39.22;37.72;98569.13;5063512;28;20258;-40
2022/08/04 08:40:06;;;;;;;;;;;;;;;39.76;36.86;98574.78;5059269;28;20603;-41
2022/08/04 08:42:34;;;;;;;;;;;;;;;39.76;36.66;98580.16;5035419;28;21018;-40
2022/08/04 08:45:02;;;;;;;;;;;;;;;40.50;35.11;98577.03;5059566;28;20396;-40
2022/08/04 08:47:36;;;;;;;;;;;;;;;39.61;36.88;98588.03;5061416;28;19939;-40
2022/08/04 08:50:02;;;;;;;;;;;;;;;39.66;35.39;98585.41;5057678;28;20773;-41
2022/08/04 08:52:34;;;;;;;;;;;;;;;39.94;35.34;98584.47;5058648;28;20337;-40
2022/08/04 08:55:18;;;;;;;;;;;;;;;40.14;34.43;98581.19;5061971;28;19993;-40
2022/08/04 08:58:07;;;;;;;;;;;;;;;40.25;34.87;98588.34;5058840;28;19920;-40
2022/08/04 09:00:35;;;;;;;;;;;;;;;40.24;33.74;98584.00;5059593;28;19924;-41
2022/08/04 09:03:21;;;;;;;;;;;;;;;38.62;35.31;98584.81;5057790;28;20381;-41
2022/08/04 09:05:46;;;;;;;;;;;;;;;40.06;34.53;98582.47;5032127;28;20007;-41
2022/08/04 09:08:30;;;;;;;;;;;;;;;41.70;32.64;98583.97;5065714;28;19973;-41
2022/08/04 09:10:58;;;;;;;;;;;;;;;40.38;34.27;98583.66;5060666;28;19935;-41
2022/08/04 09:13:26;;;;;;;;;;;;;;;41.59;31.80;98577.69;5069672;28;19959;-42
2022/08/04 09:16:03;;;;;;;;;;;;;;;41.52;32.56;98582.47;5057378;28;19928;-42
2022/08/04 09:18:52;;;;;;;;;;;;;;;41.18;35.35;98577.41;5058900;28;19924;-41
2022/08/04 09:21:24;;;;;;;;;;;;;;;43.05;31.14;98580.56;5062962;28;20036;-41
2022/08/04 09:23:52;;;;;;;;;;;;;;;43.52;31.27;98582.97;5059458;28;19946;-42
2022/08/04 09:26:24;;;;;;;;;;;;;;;41.54;31.63;98580.34;5060298;28;19920;-41
2022/08/04 09:28:55;;;;;;;;;;;;;;;42.24;32.21;98580.13;5057366;28;19939;-41
2022/08/04 09:31:27;;;;;;;;;;;;;;;41.64;30.93;98578.78;5060044;28;19932;-41
2022/08/04 09:34:13;;;;;;;;;;;;;;;41.41;31.21;98583.50;5063863;28;19916;-41
2022/08/04 09:36:45;;;;;;;;;;;;;;;43.03;32.30;98578.13;5054042;28;20356;-41
2022/08/04 09:39:14;;;;;;;;;;;;;;;43.27;33.92;98585.72;5052005;28;20368;-41
2022/08/04 09:41:39;;;;;;;;;;;;;;;42.41;31.35;98586.16;5054006;28;19923;-42
2022/08/04 09:44:04;;;;;;;;;;;;;;;43.12;30.28;98573.78;5057123;28;19916;-42
2022/08/04 09:46:38;;;;;;;;;;;;;;;43.18;31.86;98578.13;5057016;28;19947;-41
2022/08/04 09:49:05;;;;;;;;;;;;;;;42.11;30.90;98577.94;5052675;28;20392;-41
2022/08/04 09:51:52;;;;;;;;;;;;;;;42.11;36.02;98586.06;5055865;28;20003;-41
2022/08/04 09:54:23;;;;;;;;;;;;;;;42.45;31.39;98566.66;5056317;28;19916;-41
2022/08/04 09:57:07;;;;;;;;;;;;;;;41.95;31.28;98577.06;5057729;28;19916;-41
2022/08/04 09:59:40;;;;;;;;;;;;;;;41.97;31.94;98570.31;5057493;28;19920;-46
2022/08/04 10:02:09;;;;;;;;;;;;;;;40.73;33.68;98570.53;5052978;28;19971;-41
2022/08/04 10:04:37;;;;;;;;;;;;;;;41.85;34.75;98577.00;5056928;28;20301;-40
2022/08/04 10:07:11;;;;;;;;;;;;;;;41.89;32.22;98584.31;5056364;28;19924;-41
2022/08/04 10:09:36;;;;;;;;;;;;;;;42.99;30.83;98574.31;5054126;28;19935;-41
2022/08/04 10:12:08;;;;;;;;;;;;;;;42.68;31.79;98579.72;5054864;28;19917;-42
2022/08/04 10:14:37;;;;;;;;;;;;;;;43.62;30.01;98555.84;5055699;28;20019;-41
2022/08/04 10:17:28;;;;;;;;;;;;;;;43.17;29.91;98564.81;5055502;28;19917;-43
2022/08/04 10:20:07;;;;;;;;;;;;;;;42.19;31.21;98572.00;5040402;28;19913;-41
2022/08/04 10:22:37;;;;;;;;;;;;;;;42.63;31.66;98566.16;5056372;28;19978;-42
2022/08/04 10:25:16;;;;;;;;;;;;;;;43.62;28.72;98555.84;5055410;28;19919;-42
2022/08/04 10:27:47;;;;;;;;;;;;;;;43.99;31.17;98564.63;5056290;28;19916;-42
2022/08/04 10:30:13;;;;;;;;;;;;;;;42.76;31.88;98565.63;5053696;28;19962;-41
2022/08/04 10:32:43;;;;;;;;;;;;;;;42.26;30.90;98560.94;5059479;28;19919;-41
2022/08/04 10:35:11;;;;;;;;;;;;;;;41.87;30.71;98559.41;5060454;28;19917;-42
2022/08/04 10:37:46;;;;;;;;;;;;;;;42.12;28.37;98557.91;5061980;28;19916;-41
2022/08/04 10:43:15;;;;;;;;;;;;;;;42.87;29.46;98554.84;5059245;28;19927;-41
2022/08/04 10:45:46;;;;;;;;;;;;;;;43.11;26.54;98552.34;5060514;28;19974;-41
2022/08/04 10:48:17;;;;;;;;;;;;;;;44.57;26.83;98548.59;5063012;28;19952;-41
2022/08/04 10:50:44;;;;;;;;;;;;;;;43.53;28.66;98546.63;5063799;28;19923;-42
2022/08/04 10:53:11;;;;;;;;;;;;;;;43.72;29.58;98556.88;5056387;28;20079;-42
2022/08/04 10:55:46;;;;;;;;;;;;;;;43.22;29.96;98554.84;5066124;28;19916;-43
2022/08/04 10:58:19;;;;;;;;;;;;;;;42.69;29.53;98537.19;5057620;28;19965;-41
2022/08/04 11:00:45;;;;;;;;;;;;;;;43.55;27.32;98547.16;5065403;28;19923;-41
2022/08/04 11:03:21;;;;;;;;;;;;;;;42.10;30.93;98551.97;5059584;28;19947;-43
2022/08/04 11:05:53;;;;;;;;;;;;;;;42.99;29.63;98545.31;5057695;28;20416;-41
2022/08/04 11:08:18;;;;;;;;;;;;;;;42.70;27.56;98545.06;5065211;28;19919;-41
2022/08/04 11:10:48;;;;;;;;;;;;;;;42.85;29.56;98543.47;5060595;28;19974;-42
2022/08/04 11:13:15;;;;;;;;;;;;;;;40.15;31.54;98550.47;5048943;28;19916;-41
2022/08/04 11:15:41;;;;;;;;;;;;;;;42.22;30.56;98549.84;5064791;28;20306;-41
2022/08/04 11:18:09;;;;;;;;;;;;;;;42.06;31.51;98556.28;5061464;28;19923;-41
2022/08/04 11:20:37;;;;;;;;;;;;;;;42.32;29.85;98554.47;5060721;28;20062;-40
2022/08/04 11:23:13;;;;;;;;;;;;;;;42.38;32.00;98558.78;5063445;28;19928;-41
2022/08/04 11:25:57;;;;;;;;;;;;;;;42.39;30.05;98560.44;5060856;28;19924;-41
2022/08/04 11:28:34;;;;;;;;;;;;;;;43.36;27.66;98560.50;5057954;28;19916;-40
2022/08/04 11:31:04;;;;;;;;;;;;;;;42.68;28.32;98558.06;5061024;28;20008;-41
2022/08/04 11:33:47;;;;;;;;;;;;;;;44.58;25.71;98557.56;5060382;28;19917;-41
2022/08/04 11:36:14;;;;;;;;;;;;;;;43.62;26.45;98550.41;5064605;28;19919;-41
2022/08/04 11:38:55;;;;;;;;;;;;;;;43.95;27.10;98553.50;5064193;28;19920;-41
2022/08/04 11:41:25;;;;;;;;;;;;;;;43.12;27.40;98543.97;5065509;28;19916;-42
2022/08/04 11:43:59;;;;;;;;;;;;;;;41.11;28.65;98552.47;5064008;28;20006;-41
2022/08/04 11:46:45;;;;;;;;;;;;;;;42.14;29.14;98553.06;5056597;28;20018;-43
2022/08/04 11:49:13;;;;;;;;;;;;;;;42.36;27.50;98556.34;5055488;28;20459;-41
2022/08/04 11:51:39;;;;;;;;;;;;;;;42.99;27.83;98547.22;5062034;28;20586;-41
2022/08/04 11:54:04;;;;;;;;;;;;;;;44.08;26.81;98551.31;5063583;28;19920;-42
2022/08/04 11:56:29;;;;;;;;;;;;;;;44.59;26.03;98556.44;5068533;28;20874;-41
2022/08/04 11:58:55;;;;;;;;;;;;;;;42.90;26.26;98554.28;5059010;28;19924;-41
2022/08/04 12:01:26;;;;;;;;;;;;;;;41.31;27.00;98561.81;5058012;28;20443;-41
2022/08/04 12:04:10;;;;;;;;;;;;;;;42.16;29.64;98575.25;5062837;28;19957;-41
2022/08/04 12:06:51;;;;;;;;;;;;;;;41.76;26.39;98573.97;5061710;28;19916;-41
2022/08/04 12:09:20;;;;;;;;;;;;;;;41.83;28.25;98579.94;5061466;28;19923;-41
2022/08/04 12:11:48;;;;;;;;;;;;;;;43.06;25.88;98569.44;5063420;28;19920;-41
2022/08/04 12:14:25;;;;;;;;;;;;;;;42.48;26.07;98582.41;5056755;28;19959;-41
2022/08/04 12:16:50;;;;;;;;;;;;;;;40.91;27.73;98579.31;5064112;28;19927;-42
2022/08/04 12:19:17;;;;;;;;;;;;;;;40.82;28.07;98572.75;5058665;28;19917;-41
2022/08/04 12:21:44;;;;;;;;;;;;;;;39.76;28.23;98574.78;5067989;28;19966;-41
2022/08/04 12:24:16;;;;;;;;;;;;;;;38.66;27.55;98572.50;5061107;28;20012;-41
2022/08/04 12:26:43;;;;;;;;;;;;;;;40.39;27.00;98567.19;5056716;28;19913;-41
2022/08/04 12:29:08;;;;;;;;;;;;;;;39.62;26.73;98574.31;5061764;28;20088;-41
2022/08/04 12:31:33;;;;;;;;;;;;;;;40.41;25.72;98583.94;5059107;28;20393;-41
2022/08/04 12:34:01;;;;;;;;;;;;;;;40.01;26.97;98584.25;5066573;28;20509;-41
2022/08/04 12:36:54;;;;;;;;;;;;;;;39.99;27.51;98581.03;5058494;28;19927;-40
2022/08/04 12:39:19;;;;;;;;;;;;;;;40.19;26.79;98583.97;5060298;28;20009;-41
2022/08/04 12:41:57;;;;;;;;;;;;;;;41.91;28.06;98590.28;5056444;28;19947;-40
2022/08/04 12:44:22;;;;;;;;;;;;;;;41.22;30.41;98591.22;5061599;28;19916;-41
2022/08/04 12:46:47;;;;;;;;;;;;;;;41.77;29.74;98586.44;5061400;28;19938;-40
2022/08/04 12:49:13;;;;;;;;;;;;;;;41.89;28.65;98588.91;5055428;28;19925;-41
2022/08/04 12:51:39;;;;;;;;;;;;;;;40.77;28.54;98584.34;5061306;28;19985;-41
2022/08/04 12:54:05;;;;;;;;;;;;;;;39.61;30.05;98590.75;5059800;28;19993;-40
2022/08/04 12:56:31;;;;;;;;;;;;;;;39.86;29.60;98583.00;5063534;28;19916;-41
2022/08/04 12:59:01;;;;;;;;;;;;;;;39.05;30.95;98591.50;5060284;28;19927;-40
2022/08/04 13:01:26;;;;;;;;;;;;;;;38.89;29.97;98584.19;5064712;28;20543;-40
2022/08/04 13:03:51;;;;;;;;;;;;;;;38.20;31.68;98590.44;5060938;28;19920;-40
2022/08/04 13:06:17;;;;;;;;;;;;;;;38.75;31.52;98580.97;5058912;28;19917;-41
2022/08/04 13:08:42;;;;;;;;;;;;;;;38.76;34.81;98584.50;5062862;28;20325;-41